Cleveland, Ohio
Traffic Map
Current Weather Conditions
Cleveland, Ohio
Clear
Clear
24°
Feels Like: 24°
Wind Chill: 24° Ceiling: Unl
Heat Index: 24° Visibility: 10mi
Dew Point: 16° Wind: 6mph
Humidity: 60% Direction: 140° (SE)
Pressure: 29.98in Gusts: 0mph
Raw Report DataKBKL 240953Z AUTO 14005KT 10SM CLR 24/16 A2998 RMK AO2 SLP147 T02440161
Traffic Incident Summary
Active as of:
Severity:
Category:
InformationThere was an issue retrieving the traffic information for this location. Please try a different location or try again shortly.
Advertisements
Track Severe Weather on mobile